Time;durP1;ratioP1;P1;durP2;ratioP2;P2;SDS_P1;SDS_P2;PMS_P1;PMS_P2;Temp;Humidity;BMP_temperature;BMP_pressure;BME280_temperature;BME280_humidity;BME280_pressure;Samples;Min_cycle;Max_cycle;Signal;HPM_P1;HPM_P2
2022/12/12 15:03:06;;;;;;;39.43;20.63;;;1.60;79.80;;;;;;5081761;27;2049880;-63
2022/12/12 15:05:32;;;;;;;45.30;19.80;;;1.70;80.30;;;;;;5131044;28;20099;-64
2022/12/12 15:07:58;;;;;;;38.20;20.63;;;1.80;80.00;;;;;;5130988;28;20069;-63
2022/12/12 15:10:27;;;;;;;40.30;20.25;;;1.80;79.90;;;;;;5131152;28;20073;-63
2022/12/12 15:12:53;;;;;;;41.58;19.58;;;1.80;79.60;;;;;;5112341;28;20023;-63
2022/12/12 15:15:30;;;;;;;32.90;16.45;;;1.90;79.60;;;;;;5130743;28;20030;-64
2022/12/12 15:17:58;;;;;;;39.53;19.80;;;1.90;79.30;;;;;;5130792;28;20016;-64
2022/12/12 15:20:26;;;;;;;45.45;20.98;;;1.90;79.50;;;;;;5130726;28;20068;-64
2022/12/12 15:23:02;;;;;;;41.00;22.70;;;1.80;79.70;;;;;;5095483;28;20031;-63
2022/12/12 15:25:46;;;;;;;44.90;22.55;;;1.80;79.90;;;;;;5131180;28;20019;-63
2022/12/12 15:28:15;;;;;;;43.10;20.15;;;1.80;80.10;;;;;;5131333;28;20034;-64
2022/12/12 15:30:48;;;;;;;41.60;20.88;;;1.80;80.20;;;;;;5130715;28;20020;-63
2022/12/12 15:33:24;;;;;;;40.50;21.30;;;1.80;80.60;;;;;;5130838;28;20026;-63
2022/12/12 15:35:56;;;;;;;42.15;21.55;;;1.70;80.70;;;;;;5130840;28;20077;-64
2022/12/12 15:38:23;;;;;;;47.60;23.60;;;1.60;80.90;;;;;;5112335;28;20028;-62
2022/12/12 15:40:51;;;;;;;49.67;22.33;;;1.60;81.20;;;;;;5111901;28;20164;-62
2022/12/12 15:43:23;;;;;;;56.20;25.48;;;1.50;81.30;;;;;;5130537;28;20022;-64
2022/12/12 15:45:53;;;;;;;44.15;22.38;;;1.50;81.40;;;;;;5131124;28;20027;-63
2022/12/12 15:48:20;;;;;;;49.92;22.98;;;1.50;81.60;;;;;;5130920;28;20015;-62
2022/12/12 15:50:55;;;;;;;48.75;23.25;;;1.40;81.50;;;;;;5130647;28;20019;-63
2022/12/12 15:53:44;;;;;;;43.47;22.60;;;1.40;81.70;;;;;;5112507;28;20019;-63
2022/12/12 15:56:19;;;;;;;56.20;26.83;;;1.40;81.80;;;;;;5130918;28;20479;-65
2022/12/12 15:58:51;;;;;;;45.33;24.15;;;1.40;82.00;;;;;;5131063;28;20348;-65
2022/12/12 16:01:22;;;;;;;52.53;25.17;;;1.40;82.20;;;;;;5130663;28;20065;-63
2022/12/12 16:04:11;;;;;;;50.88;25.45;;;1.30;82.30;;;;;;5130718;28;20065;-64
2022/12/12 16:06:40;;;;;;;56.60;26.23;;;1.30;82.60;;;;;;5110820;28;20024;-64
2022/12/12 16:09:06;;;;;;;50.65;25.88;;;1.20;82.80;;;;;;5131087;28;20046;-65
2022/12/12 16:11:45;;;;;;;44.28;23.08;;;1.10;83.20;;;;;;5131189;28;20401;-64
2022/12/12 16:14:46;;;;;;;47.40;24.73;;;0.90;83.50;;;;;;5118779;28;20098;-63
2022/12/12 16:17:22;;;;;;;59.50;25.88;;;1.00;83.80;;;;;;5014497;28;20034;-67
2022/12/12 16:20:02;;;;;;;51.67;24.67;;;0.90;83.80;;;;;;5084386;28;20058;-64
2022/12/12 16:22:38;;;;;;;;;;;1.00;84.10;;;;;;5099170;28;20101;-63
2022/12/12 16:25:25;;;;;;;51.88;26.27;;;0.90;84.30;;;;;;5098237;28;19903;-65
2022/12/12 16:28:06;;;;;;;61.47;29.05;;;0.90;84.40;;;;;;5117355;28;20023;-65
2022/12/12 16:30:34;;;;;;;55.05;27.02;;;0.90;84.50;;;;;;5098306;28;20213;-65
2022/12/12 16:33:36;;;;;;;64.30;28.17;;;0.80;84.60;;;;;;5097999;28;20055;-63
2022/12/12 16:36:05;;;;;;;67.75;31.52;;;0.70;85.00;;;;;;5110514;28;20070;-64
2022/12/12 16:38:33;;;;;;;67.72;32.30;;;0.60;85.30;;;;;;5116671;28;20478;-63
2022/12/12 16:41:03;;;;;;;67.75;32.53;;;0.60;85.50;;;;;;5098056;28;20447;-63
2022/12/12 16:43:29;;;;;;;67.13;32.97;;;0.40;85.40;;;;;;5116431;28;20016;-62
2022/12/12 16:45:56;;;;;;;68.60;31.75;;;0.40;86.20;;;;;;5097810;28;20027;-64
2022/12/12 16:48:32;;;;;;;67.38;31.58;;;0.50;86.00;;;;;;5116298;28;20034;-65
2022/12/12 16:51:02;;;;;;;74.07;34.08;;;0.60;85.80;;;;;;5097809;28;20062;-63
2022/12/12 16:53:33;;;;;;;69.60;31.80;;;0.40;85.50;;;;;;5116276;28;20023;-64
2022/12/12 16:55:58;;;;;;;67.15;32.45;;;0.30;86.40;;;;;;5115851;28;20016;-63
2022/12/12 16:58:24;;;;;;;71.22;33.00;;;0.30;86.30;;;;;;5115512;28;20023;-63
2022/12/12 17:00:51;;;;;;;68.78;34.30;;;0.10;86.60;;;;;;5116201;28;20505;-64
2022/12/12 17:03:18;;;;;;;77.68;32.88;;;0.00;86.90;;;;;;5097271;28;20073;-64
2022/12/12 17:05:47;;;;;;;68.00;29.48;;;0.10;87.30;;;;;;5115609;28;20518;-63
2022/12/12 17:08:14;;;;;;;79.32;36.30;;;0.20;87.70;;;;;;5115516;28;20016;-63
2022/12/12 17:10:40;;;;;;;74.40;37.22;;;0.30;87.10;;;;;;5115656;28;20023;-64
2022/12/12 17:13:12;;;;;;;75.63;36.75;;;0.30;87.00;;;;;;5115419;28;20027;-64
2022/12/12 17:15:40;;;;;;;83.20;36.22;;;0.30;87.00;;;;;;5097016;28;20027;-64
2022/12/12 17:18:06;;;;;;;84.13;38.20;;;0.20;87.10;;;;;;5096590;28;20016;-64
2022/12/12 17:20:31;;;;;;;82.25;37.97;;;0.30;87.30;;;;;;5115021;28;20416;-63
2022/12/12 17:23:09;;;;;;;90.95;40.83;;;0.20;87.10;;;;;;5096466;28;20050;-64
2022/12/12 17:25:38;;;;;;;80.03;38.30;;;0.10;87.20;;;;;;5095921;28;20016;-65
2022/12/12 17:28:06;;;;;;;95.50;39.80;;;0.00;87.50;;;;;;5096999;28;20019;-64
2022/12/12 17:30:35;;;;;;;80.43;38.95;;;0.00;87.80;;;;;;5115213;28;20169;-64
2022/12/12 17:33:01;;;;;;;84.87;41.23;;;0.10;88.30;;;;;;5096476;28;20423;-64
2022/12/12 17:35:52;;;;;;;94.32;43.28;;;0.10;88.10;;;;;;5096622;28;20100;-64
2022/12/12 17:38:17;;;;;;;86.57;42.53;;;0.00;88.00;;;;;;5094917;28;20062;-62
2022/12/12 17:40:43;;;;;;;86.38;41.10;;;0.00;88.30;;;;;;5114603;28;20020;-63
2022/12/12 17:43:09;;;;;;;97.85;44.47;;;0.00;88.50;;;;;;5114756;28;20027;-63
2022/12/12 17:45:34;;;;;;;101.07;47.15;;;0.00;88.50;;;;;;5114624;28;20019;-64
2022/12/12 17:48:00;;;;;;;96.45;48.35;;;-3276.70;88.50;;;;;;5114325;28;20103;-64
2022/12/12 17:50:25;;;;;;;97.72;43.95;;;-3276.70;88.70;;;;;;5095894;28;20038;-64
2022/12/12 17:52:51;;;;;;;95.10;45.45;;;-3276.60;88.50;;;;;;5114502;28;20430;-67
2022/12/12 17:55:17;;;;;;;95.57;44.53;;;-3276.50;89.00;;;;;;5096500;28;20024;-65
2022/12/12 17:57:43;;;;;;;82.75;41.22;;;-3276.60;89.00;;;;;;5115218;28;20023;-63
2022/12/12 18:00:10;;;;;;;94.55;41.20;;;-3276.60;89.20;;;;;;5114815;28;20027;-64
2022/12/12 18:02:38;;;;;;;82.78;38.15;;;-3276.50;89.30;;;;;;5113732;28;20420;-63
2022/12/12 18:05:05;;;;;;;83.65;38.05;;;-3276.50;89.30;;;;;;5095670;28;20045;-64
2022/12/12 18:07:31;;;;;;;88.78;39.03;;;-3276.50;89.50;;;;;;5114202;28;20019;-64
2022/12/12 18:09:56;;;;;;;82.78;36.88;;;-3276.70;89.50;;;;;;5114355;28;20045;-63
2022/12/12 18:12:22;;;;;;;72.15;36.80;;;-3276.60;89.30;;;;;;5096024;28;20027;-65
2022/12/12 18:14:48;;;;;;;89.30;43.45;;;-3276.70;89.80;;;;;;5095919;28;20100;-63
2022/12/12 18:17:14;;;;;;;93.15;43.30;;;-3276.60;89.80;;;;;;5095464;28;20524;-64
2022/12/12 18:19:39;;;;;;;83.13;40.70;;;-3276.50;89.90;;;;;;5114270;28;20035;-63
2022/12/12 18:22:05;;;;;;;84.15;40.58;;;-3276.50;90.00;;;;;;5114174;28;20083;-64
2022/12/12 18:24:31;;;;;;;85.90;38.75;;;-3276.50;90.00;;;;;;5095761;28;20054;-63
2022/12/12 18:26:58;;;;;;;95.05;45.70;;;-3276.50;89.90;;;;;;5114206;28;20023;-63
2022/12/12 18:29:25;;;;;;;95.30;44.97;;;-3276.50;90.00;;;;;;5114284;28;20039;-64
2022/12/12 18:31:50;;;;;;;97.93;49.17;;;-3276.40;90.20;;;;;;5114065;28;20020;-64
2022/12/12 18:34:16;;;;;;;106.38;47.65;;;-3276.40;90.30;;;;;;5113942;28;20020;-64
2022/12/12 18:36:42;;;;;;;108.07;47.65;;;-3276.40;90.40;;;;;;5114017;28;20390;-63
2022/12/12 18:39:09;;;;;;;104.05;45.92;;;-3276.30;90.50;;;;;;5114019;28;20037;-64
2022/12/12 18:41:35;;;;;;;92.57;44.15;;;-3276.30;90.60;;;;;;5114020;28;20069;-64
2022/12/12 18:44:09;;;;;;;100.20;45.85;;;-3276.30;90.70;;;;;;5095554;28;20020;-63
2022/12/12 18:46:36;;;;;;;110.35;47.75;;;-3276.30;90.60;;;;;;5114067;28;20020;-63
2022/12/12 18:49:02;;;;;;;103.93;45.55;;;-3276.30;90.70;;;;;;5113660;28;20413;-64
2022/12/12 18:51:28;;;;;;;100.57;45.55;;;-3276.30;90.70;;;;;;5113784;28;20030;-67
2022/12/12 18:53:59;;;;;;;110.57;45.30;;;-3276.20;90.80;;;;;;5113870;28;20023;-63
2022/12/12 18:56:27;;;;;;;106.75;45.30;;;-3276.30;90.90;;;;;;5114215;28;20019;-63
2022/12/12 18:58:55;;;;;;;96.95;44.95;;;-3276.30;90.90;;;;;;5113609;28;20020;-63
2022/12/12 19:01:23;;;;;;;99.63;44.75;;;-3276.30;90.90;;;;;;5113241;28;20394;-63
2022/12/12 19:03:51;;;;;;;96.47;46.33;;;-3276.30;91.00;;;;;;5113303;28;20391;-65
2022/12/12 19:06:19;;;;;;;109.63;44.33;;;-3276.40;90.90;;;;;;5113370;28;20114;-63
2022/12/12 19:08:45;;;;;;;103.20;47.13;;;-3276.20;90.70;;;;;;5095182;28;20530;-64
2022/12/12 19:11:12;;;;;;;103.65;43.88;;;-3276.20;90.90;;;;;;5113817;28;20089;-64
2022/12/12 19:13:38;;;;;;;87.70;44.67;;;-3276.20;91.00;;;;;;5113536;28;20077;-63
2022/12/12 19:16:13;;;;;;;92.22;42.70;;;-3276.20;91.00;;;;;;5113268;28;20084;-63
2022/12/12 19:18:40;;;;;;;107.05;46.40;;;-3276.20;91.00;;;;;;5113256;28;20028;-65
2022/12/12 19:21:12;;;;;;;107.20;45.38;;;-3276.10;91.00;;;;;;5113430;28;20489;-64
2022/12/12 19:23:38;;;;;;;102.22;47.65;;;-3276.10;91.00;;;;;;5095084;28;20023;-64
2022/12/12 19:26:09;;;;;;;108.15;48.47;;;-3276.10;91.00;;;;;;5113224;28;20103;-63
2022/12/12 19:28:35;;;;;;;112.80;49.50;;;-3276.00;90.90;;;;;;5094659;28;20020;-65
2022/12/12 19:31:15;;;;;;;95.03;46.63;;;-3276.00;91.20;;;;;;5113445;28;20031;-64
2022/12/12 19:33:42;;;;;;;101.60;46.17;;;-3276.00;91.20;;;;;;5094798;28;20112;-64
2022/12/12 19:36:13;;;;;;;112.05;53.00;;;-3276.00;91.20;;;;;;5094912;28;20326;-63
2022/12/12 19:38:39;;;;;;;136.77;55.55;;;-3275.90;91.10;;;;;;5113681;28;20020;-63
2022/12/12 19:41:06;;;;;;;129.38;55.60;;;-3275.90;91.10;;;;;;5113159;28;20089;-62
2022/12/12 19:43:32;;;;;;;103.80;48.15;;;-3275.90;91.20;;;;;;5113584;28;20340;-64
2022/12/12 19:46:06;;;;;;;97.95;46.58;;;-3275.80;91.20;;;;;;5113079;28;20080;-64
2022/12/12 19:48:33;;;;;;;108.30;52.88;;;-3275.90;91.10;;;;;;5114883;28;20019;-64
2022/12/12 19:51:14;;;;;;;107.03;49.17;;;-3275.90;91.10;;;;;;5098394;28;20038;-65
2022/12/12 19:53:43;;;;;;;107.45;49.78;;;-3275.80;91.10;;;;;;5116962;28;20463;-64
2022/12/12 19:56:12;;;;;;;97.68;50.15;;;-3275.70;91.30;;;;;;5116985;28;20099;-65
2022/12/12 19:58:38;;;;;;;100.35;45.20;;;-3275.70;91.30;;;;;;5098335;28;20028;-63
2022/12/12 20:01:06;;;;;;;99.35;44.55;;;-3275.70;91.40;;;;;;5116613;28;20426;-65
2022/12/12 20:03:31;;;;;;;110.97;48.03;;;-3275.70;91.40;;;;;;5098474;28;20077;-64
2022/12/12 20:06:03;;;;;;;100.60;46.05;;;-3275.70;91.40;;;;;;5116374;28;20479;-64
2022/12/12 20:08:30;;;;;;;110.75;48.75;;;-3275.70;91.40;;;;;;5098323;28;20417;-64
2022/12/12 20:11:05;;;;;;;105.85;47.45;;;-3275.70;91.40;;;;;;5098177;28;20131;-63
2022/12/12 20:13:31;;;;;;;101.18;45.15;;;-3275.70;91.40;;;;;;5116823;28;20051;-64
2022/12/12 20:16:05;;;;;;;120.15;48.17;;;-3275.60;91.30;;;;;;5116512;28;20023;-62
2022/12/12 20:18:31;;;;;;;93.55;43.50;;;-3275.70;91.50;;;;;;5116545;28;20031;-64
2022/12/12 20:20:57;;;;;;;108.93;49.45;;;-3275.60;91.20;;;;;;5116464;28;20027;-65
2022/12/12 20:23:23;;;;;;;107.15;50.75;;;-3275.70;91.40;;;;;;5116619;28;20094;-63
2022/12/12 20:25:48;;;;;;;100.65;47.45;;;-3275.70;91.30;;;;;;5116474;28;20074;-63
2022/12/12 20:28:14;;;;;;;111.03;50.75;;;-3275.70;91.10;;;;;;5116374;28;20053;-64
2022/12/12 20:30:39;;;;;;;100.82;48.40;;;-3275.60;91.20;;;;;;5097993;28;20051;-65
2022/12/12 20:33:05;;;;;;;113.35;52.20;;;-3275.40;91.20;;;;;;5116181;28;20039;-65
2022/12/12 20:35:33;;;;;;;106.97;48.25;;;-3275.40;91.30;;;;;;5116197;28;20039;-63
2022/12/12 20:37:59;;;;;;;92.70;42.22;;;-3275.40;91.50;;;;;;5116248;28;20024;-63
2022/12/12 20:40:24;;;;;;;96.18;46.05;;;-3275.60;91.80;;;;;;5116255;28;20068;-64
2022/12/12 20:42:50;;;;;;;107.45;48.50;;;-3275.60;91.50;;;;;;5116350;28;20107;-64
2022/12/12 20:45:16;;;;;;;116.72;53.65;;;-3275.60;91.50;;;;;;5116176;28;20016;-65
2022/12/12 20:47:41;;;;;;;122.25;54.53;;;-3275.60;91.30;;;;;;5116331;28;20028;-64
2022/12/12 20:50:07;;;;;;;113.78;55.08;;;-3275.70;91.30;;;;;;5097803;28;20020;-63
2022/12/12 20:52:33;;;;;;;122.63;57.47;;;-3275.70;91.00;;;;;;5115844;28;20023;-64
2022/12/12 20:54:58;;;;;;;109.13;50.88;;;-3275.60;91.00;;;;;;5115966;28;20046;-63
2022/12/12 20:57:24;;;;;;;116.13;50.85;;;-3275.50;91.00;;;;;;5116007;28;20028;-64
2022/12/12 20:59:50;;;;;;;110.85;51.85;;;-3275.50;91.10;;;;;;5115738;28;20026;-64
